createdAt,value
2018-05-01T00:01:10.849Z,4.07
2018-05-01T00:03:45.241Z,4.70
2018-05-01T00:06:19.876Z,4.17
2018-05-01T00:08:55.237Z,4.17
2018-05-01T00:11:28.905Z,3.97
2018-05-01T00:14:02.943Z,4.17
2018-05-01T00:16:38.349Z,4.13
2018-05-01T00:19:11.972Z,4.57
2018-05-01T00:21:47.372Z,3.73
2018-05-01T00:24:21.112Z,2.23
2018-05-01T00:26:54.909Z,2.90
2018-05-01T00:29:28.528Z,4.60
2018-05-01T00:32:02.968Z,7.03
2018-05-01T00:34:36.584Z,3.87
2018-05-01T00:37:10.244Z,4.77
2018-05-01T00:39:43.912Z,4.23
2018-05-01T00:42:17.579Z,3.20
2018-05-01T00:44:51.225Z,6.03
2018-05-01T00:47:24.884Z,5.13
2018-05-01T00:49:58.538Z,6.33
2018-05-01T00:52:47.836Z,4.20
2018-05-01T00:55:21.460Z,4.10
2018-05-01T00:57:55.122Z,3.93
2018-05-01T01:00:37.004Z,6.40
2018-05-01T01:03:12.415Z,5.17
2018-05-01T01:05:46.084Z,3.20
2018-05-01T01:08:20.718Z,8.33
2018-05-01T01:10:54.343Z,3.83
2018-05-01T01:13:28.003Z,4.30
2018-05-01T01:16:01.766Z,4.80
2018-05-01T01:18:36.108Z,3.47
2018-05-01T01:21:11.547Z,3.37
2018-05-01T01:23:46.181Z,3.33
2018-05-01T01:26:19.837Z,4.20
2018-05-01T01:28:53.533Z,2.40
2018-05-01T01:31:27.197Z,3.23
2018-05-01T01:34:00.879Z,4.53
2018-05-01T01:36:33.379Z,2.73
2018-05-01T01:39:05.885Z,4.77
2018-05-01T01:41:39.351Z,5.23
2018-05-01T01:44:11.867Z,5.37
2018-05-01T01:46:44.368Z,4.87
2018-05-01T01:49:17.641Z,5.10
2018-05-01T01:51:51.040Z,2.93
2018-05-01T01:54:24.311Z,3.03
2018-05-01T01:56:56.805Z,6.10
2018-05-01T01:59:30.088Z,3.30
2018-05-01T02:02:03.564Z,3.43
2018-05-01T02:04:36.067Z,3.10
2018-05-01T02:07:09.335Z,3.83
2018-05-01T02:09:42.819Z,3.90
2018-05-01T02:12:16.299Z,4.87
2018-05-01T02:14:49.848Z,3.60
2018-05-01T02:17:22.340Z,4.77
2018-05-01T02:19:54.858Z,2.93
2018-05-01T02:22:27.357Z,6.07
2018-05-01T02:24:59.860Z,3.47
2018-05-01T02:27:32.359Z,6.83
2018-05-01T02:30:05.835Z,4.03
2018-05-01T02:32:39.330Z,3.37
2018-05-01T02:35:11.829Z,2.67
2018-05-01T02:37:44.320Z,3.13
2018-05-01T02:40:16.821Z,3.03
2018-05-01T02:42:49.318Z,3.23
2018-05-01T02:45:23.561Z,4.60
2018-05-01T02:47:56.061Z,6.93
2018-05-01T02:50:28.563Z,2.57
2018-05-01T02:53:02.057Z,2.13
2018-05-01T02:55:34.552Z,3.67
2018-05-01T02:58:07.810Z,5.83
2018-05-01T03:00:41.281Z,3.73
2018-05-01T03:03:15.495Z,2.37
2018-05-01T03:05:47.992Z,2.30
2018-05-01T03:08:20.497Z,3.43
2018-05-01T03:10:54.753Z,3.53
2018-05-01T03:13:27.257Z,3.63
2018-05-01T03:15:59.772Z,2.90
2018-05-01T03:18:32.275Z,2.70
2018-05-01T03:21:04.778Z,4.43
2018-05-01T03:23:37.303Z,4.93
2018-05-01T03:26:09.819Z,3.87
2018-05-01T03:28:42.332Z,1.70
2018-05-01T03:31:16.584Z,4.63
2018-05-01T03:33:50.054Z,1.93
2018-05-01T03:36:22.588Z,3.67
2018-05-01T03:38:56.117Z,1.40
2018-05-01T03:41:29.773Z,1.63
2018-05-01T03:44:02.300Z,1.60
2018-05-01T03:46:34.803Z,1.10
2018-05-01T03:49:07.292Z,1.67
2018-05-01T03:51:39.791Z,1.53
2018-05-01T03:54:12.291Z,0.80
2018-05-01T03:56:44.797Z,1.87
2018-05-01T03:59:17.306Z,4.20
2018-05-01T04:01:50.815Z,1.13
2018-05-01T04:04:24.072Z,1.10
2018-05-01T04:06:56.573Z,0.83
2018-05-01T04:09:29.100Z,1.67
2018-05-01T04:12:01.639Z,0.87
2018-05-01T04:14:34.923Z,0.80
2018-05-01T04:17:08.196Z,1.00
2018-05-01T04:19:40.717Z,1.23
2018-05-01T04:22:13.219Z,1.87
2018-05-01T04:24:46.669Z,1.30
2018-05-01T04:27:20.142Z,2.93
2018-05-01T04:29:53.658Z,0.83
2018-05-01T04:32:26.919Z,2.00
2018-05-01T04:34:59.620Z,0.97
2018-05-01T04:37:33.976Z,0.60
2018-05-01T04:40:07.464Z,0.87
2018-05-01T04:42:40.979Z,0.87
2018-05-01T04:45:13.479Z,1.53
2018-05-01T04:47:45.988Z,0.60
2018-05-01T04:50:20.220Z,0.70
2018-05-01T04:52:53.717Z,1.17
2018-05-01T04:55:27.186Z,2.77
2018-05-01T04:58:00.450Z,4.03
2018-05-01T05:00:32.953Z,0.60
2018-05-01T05:03:06.426Z,0.37
2018-05-01T05:05:38.934Z,0.40
2018-05-01T05:08:12.209Z,0.30
2018-05-01T05:10:44.734Z,0.73
2018-05-01T05:13:17.234Z,0.40
2018-05-01T05:15:49.515Z,3.27
2018-05-01T05:18:23.004Z,0.30
2018-05-01T05:20:56.520Z,1.47
2018-05-01T05:23:30.828Z,0.40
2018-05-01T05:26:03.166Z,0.40
2018-05-01T05:28:35.680Z,2.80
2018-05-01T05:31:08.188Z,0.90
2018-05-01T05:33:40.697Z,1.50
2018-05-01T05:36:13.258Z,0.77
2018-05-01T05:38:46.695Z,0.50
2018-05-01T05:41:19.210Z,2.73
2018-05-01T05:43:51.777Z,2.53
2018-05-01T05:46:24.282Z,2.40
2018-05-01T05:48:56.800Z,0.60
2018-05-01T05:51:30.083Z,0.53
2018-05-01T05:54:02.596Z,2.33
2018-05-01T05:56:35.107Z,1.70
2018-05-01T05:59:07.608Z,0.10
2018-05-01T06:01:40.875Z,0.00
2018-05-01T06:04:14.354Z,4.13
2018-05-01T06:06:47.667Z,1.20
2018-05-01T06:09:20.212Z,1.30
2018-05-01T06:11:53.701Z,0.53
2018-05-01T06:14:27.186Z,2.77
2018-05-01T06:17:00.699Z,1.30
2018-05-01T06:19:33.198Z,3.30
2018-05-01T06:22:05.807Z,0.10
2018-05-01T06:24:38.410Z,0.93
2018-05-01T06:27:10.922Z,0.40
2018-05-01T06:29:44.388Z,0.10
2018-05-01T06:32:16.896Z,1.50
2018-05-01T06:34:49.408Z,1.03
2018-05-01T06:37:21.985Z,1.13
2018-05-01T06:39:55.741Z,0.40
2018-05-01T06:42:29.197Z,4.17
2018-05-01T06:45:01.715Z,0.37
2018-05-01T06:47:34.229Z,0.10
2018-05-01T06:50:19.971Z,2.73
2018-05-01T06:52:56.242Z,0.20
2018-05-01T06:55:28.850Z,0.00
2018-05-01T06:58:13.261Z,0.20
2018-05-01T07:00:45.774Z,1.00
2018-05-01T07:03:25.699Z,0.00
2018-05-01T07:06:00.070Z,0.10
2018-05-01T07:08:34.780Z,0.80
2018-05-01T07:11:08.060Z,0.00
2018-05-01T07:13:41.326Z,3.27
2018-05-01T07:16:13.819Z,1.93
2018-05-01T07:18:46.311Z,0.83
2018-05-01T07:21:19.868Z,0.87
2018-05-01T07:23:53.313Z,2.30
2018-05-01T07:26:26.390Z,1.03
2018-05-01T07:28:59.580Z,0.20
2018-05-01T07:31:34.995Z,0.60
2018-05-01T07:34:18.565Z,0.10
2018-05-01T07:39:46.628Z,1.33
2018-05-01T07:42:25.841Z,0.53
2018-05-01T07:47:53.950Z,0.10
2018-05-01T07:53:16.533Z,0.50
2018-05-01T07:55:52.072Z,0.87
2018-05-01T07:58:32.726Z,0.10
2018-05-01T08:01:09.131Z,0.10
2018-05-01T08:03:47.957Z,0.00
2018-05-01T08:06:20.284Z,0.70
2018-05-01T08:08:53.560Z,0.40
2018-05-01T08:11:26.064Z,0.10
2018-05-01T08:13:58.701Z,0.37
2018-05-01T08:16:31.219Z,1.47
2018-05-01T08:19:03.719Z,0.10
2018-05-01T08:21:40.348Z,0.20
2018-05-01T08:24:29.511Z,0.10
2018-05-01T08:29:56.834Z,0.10
2018-05-01T08:32:32.220Z,0.07
2018-05-01T08:35:09.965Z,0.70
2018-05-01T08:37:57.248Z,0.37
2018-05-01T08:40:38.792Z,0.40
2018-05-01T08:45:56.185Z,0.00
2018-05-01T08:48:29.657Z,0.53
2018-05-01T08:51:02.921Z,1.83
2018-05-01T08:53:35.432Z,0.73
2018-05-01T08:56:09.670Z,0.10
2018-05-01T08:58:42.260Z,0.77
2018-05-01T09:01:14.770Z,2.53
2018-05-01T09:03:47.271Z,0.10
2018-05-01T09:06:19.774Z,1.37
2018-05-01T09:08:52.284Z,0.93
2018-05-01T09:11:24.793Z,1.50
2018-05-01T09:13:58.257Z,0.00
2018-05-01T09:16:31.928Z,0.00
2018-05-01T09:19:05.389Z,0.10
2018-05-01T09:21:40.116Z,0.77
2018-05-01T09:24:13.630Z,0.10
2018-05-01T09:26:48.777Z,0.40
2018-05-01T09:29:23.242Z,0.60
2018-05-01T09:32:03.184Z,0.53
2018-05-01T09:34:41.715Z,1.30
2018-05-01T09:37:16.222Z,1.00
2018-05-01T09:39:48.752Z,0.10
2018-05-01T09:42:24.606Z,0.10
2018-05-01T09:45:04.751Z,5.63
2018-05-01T09:47:40.061Z,0.10
2018-05-01T09:50:16.623Z,0.20
2018-05-01T09:52:56.655Z,0.73
2018-05-01T09:55:30.405Z,2.40
2018-05-01T09:58:04.076Z,0.10
2018-05-01T10:03:32.664Z,0.20
2018-05-01T10:06:09.507Z,1.50
2018-05-01T10:08:50.934Z,0.33
2018-05-01T10:11:25.668Z,0.00
2018-05-01T10:14:02.835Z,2.10
2018-05-01T10:16:42.087Z,2.57
2018-05-01T10:25:15.534Z,0.53
2018-05-01T10:27:48.998Z,0.20
2018-05-01T10:33:26.512Z,0.37
2018-05-01T10:36:08.319Z,0.10
2018-05-01T10:38:43.959Z,0.27
2018-05-01T10:41:21.288Z,0.10
2018-05-01T10:44:02.762Z,1.90
2018-05-01T10:46:44.408Z,0.30
2018-05-01T10:49:28.366Z,2.73
2018-05-01T10:54:52.109Z,1.20
2018-05-01T10:57:41.377Z,0.60
2018-05-01T11:00:24.649Z,1.90
2018-05-01T11:06:08.904Z,1.37
2018-05-01T11:11:41.450Z,0.90
2018-05-01T11:14:28.018Z,2.03
2018-05-01T11:17:02.916Z,0.97
2018-05-01T11:19:42.804Z,1.17
2018-05-01T11:22:18.942Z,0.90
2018-05-01T11:24:54.284Z,1.23
2018-05-01T11:30:18.536Z,1.00
2018-05-01T11:32:56.772Z,1.33
2018-05-01T11:35:31.650Z,1.23
2018-05-01T11:38:21.581Z,0.90
2018-05-01T11:40:56.356Z,1.50
2018-05-01T11:43:34.708Z,1.37
2018-05-01T11:46:12.824Z,1.37
2018-05-01T11:48:58.795Z,1.90
2018-05-01T11:54:34.184Z,2.67
2018-05-01T11:57:24.303Z,1.97
2018-05-01T12:02:42.739Z,6.23
2018-05-01T12:05:17.508Z,1.43
2018-05-01T12:07:51.208Z,1.57
2018-05-01T12:10:26.603Z,1.63
2018-05-01T12:13:00.283Z,3.33
2018-05-01T12:15:33.684Z,2.13
2018-05-01T12:18:08.352Z,5.97
2018-05-01T12:20:42.006Z,4.07
2018-05-01T12:23:17.849Z,1.80
2018-05-01T12:25:52.480Z,2.27
2018-05-01T12:28:27.149Z,2.00
2018-05-01T12:31:01.003Z,3.30
2018-05-01T12:36:39.493Z,4.13
2018-05-01T12:39:15.804Z,2.40
2018-05-01T12:41:49.487Z,2.07
2018-05-01T12:44:23.624Z,2.97
2018-05-01T12:47:00.650Z,2.17
2018-05-01T12:49:45.934Z,1.90
2018-05-01T12:52:20.878Z,2.00
2018-05-01T12:54:54.621Z,3.90
2018-05-01T12:57:29.040Z,3.47
2018-05-01T13:00:03.795Z,18.77
2018-05-01T13:02:37.449Z,5.40
2018-05-01T13:05:11.202Z,6.90
2018-05-01T13:07:45.025Z,9.30
2018-05-01T13:10:18.726Z,3.73
2018-05-01T13:12:52.375Z,4.13
2018-05-01T13:15:26.799Z,2.73
2018-05-01T13:18:01.215Z,2.57
2018-05-01T13:20:36.682Z,3.50
2018-05-01T13:23:10.347Z,1.50
2018-05-01T13:25:44.055Z,2.50
2018-05-01T13:28:18.741Z,3.53
2018-05-01T13:30:52.478Z,3.43
2018-05-01T13:33:26.182Z,5.87
2018-05-01T13:35:59.831Z,6.87
2018-05-01T13:38:33.505Z,2.27
2018-05-01T13:41:07.169Z,2.90
2018-05-01T13:43:41.039Z,3.10
2018-05-01T13:46:14.691Z,5.47
2018-05-01T13:48:48.124Z,4.63
2018-05-01T13:51:33.011Z,3.43
2018-05-01T13:54:06.766Z,3.13
2018-05-01T13:56:41.197Z,3.17
2018-05-01T13:59:14.851Z,2.60
2018-05-01T14:01:48.503Z,3.27
2018-05-01T14:04:22.182Z,5.60
2018-05-01T14:06:56.027Z,5.20
2018-05-01T14:09:31.388Z,3.43
2018-05-01T14:12:05.043Z,4.03
2018-05-01T14:14:38.701Z,4.33
2018-05-01T14:17:12.354Z,6.37
2018-05-01T14:19:46.109Z,3.27
2018-05-01T14:22:20.748Z,3.13
2018-05-01T14:24:55.384Z,4.57
2018-05-01T14:27:30.723Z,3.70
2018-05-01T14:30:04.825Z,6.07
2018-05-01T14:32:42.329Z,3.23
2018-05-01T14:35:17.708Z,4.30
2018-05-01T14:37:52.358Z,3.60
2018-05-01T14:40:26.976Z,4.33
2018-05-01T14:43:00.632Z,5.23
2018-05-01T14:45:34.294Z,2.97
2018-05-01T14:48:07.954Z,2.90
2018-05-01T14:50:42.592Z,1.97
2018-05-01T14:53:18.967Z,2.47
2018-05-01T14:55:53.743Z,2.40
2018-05-01T14:58:29.112Z,5.77
2018-05-01T15:01:03.768Z,2.50
2018-05-01T15:03:38.425Z,2.90
2018-05-01T15:06:12.861Z,2.20
2018-05-01T15:08:47.439Z,4.77
2018-05-01T15:11:20.896Z,4.10
2018-05-01T15:13:55.528Z,3.97
2018-05-01T15:16:31.583Z,2.90
2018-05-01T15:19:05.298Z,2.67
2018-05-01T15:21:39.570Z,3.30
2018-05-01T15:24:15.503Z,3.33
2018-05-01T15:26:50.173Z,2.80
2018-05-01T15:29:24.873Z,3.67
2018-05-01T15:31:59.547Z,2.63
2018-05-01T15:34:34.429Z,2.13
2018-05-01T15:37:11.025Z,3.10
2018-05-01T15:39:54.241Z,2.00
2018-05-01T15:42:28.405Z,1.97
2018-05-01T15:45:02.074Z,2.80
2018-05-01T15:47:35.700Z,1.97
2018-05-01T15:50:09.357Z,1.90
2018-05-01T15:52:42.985Z,3.43
2018-05-01T15:55:17.905Z,1.70
2018-05-01T16:00:33.388Z,2.30
2018-05-01T16:03:26.722Z,2.30
2018-05-01T16:06:01.198Z,2.50
2018-05-01T16:08:43.601Z,1.47
2018-05-01T16:11:19.414Z,2.97
2018-05-01T16:13:56.064Z,2.53
2018-05-01T16:16:37.866Z,3.80
2018-05-01T16:19:20.455Z,1.80
2018-05-01T16:28:08.141Z,1.67
2018-05-01T16:30:43.983Z,1.73
2018-05-01T16:33:18.382Z,2.10
2018-05-01T16:35:52.106Z,1.60
2018-05-01T16:38:26.831Z,1.37
2018-05-01T16:41:01.275Z,1.00
2018-05-01T16:43:35.876Z,1.30
2018-05-01T16:46:09.544Z,0.80
2018-05-01T16:48:43.216Z,1.57
2018-05-01T16:51:16.880Z,0.87
2018-05-01T16:53:50.505Z,6.13
2018-05-01T16:56:25.169Z,3.23
2018-05-01T16:58:58.794Z,9.53
2018-05-01T17:01:33.217Z,5.33
2018-05-01T17:04:07.386Z,22.73
2018-05-01T17:06:41.049Z,3.50
2018-05-01T17:09:14.712Z,3.90
2018-05-01T17:11:49.296Z,2.17
2018-05-01T17:14:22.958Z,3.00
2018-05-01T17:16:56.577Z,4.70
2018-05-01T17:19:30.231Z,1.90
2018-05-01T17:22:03.890Z,1.73
2018-05-01T17:24:39.804Z,2.07
2018-05-01T17:27:14.213Z,1.27
2018-05-01T17:29:47.891Z,2.13
2018-05-01T17:32:21.536Z,1.20
2018-05-01T17:34:55.278Z,2.67
2018-05-01T17:37:29.025Z,2.80
2018-05-01T17:40:03.475Z,2.43
2018-05-01T17:42:37.101Z,4.70
2018-05-01T17:45:10.766Z,3.43
2018-05-01T17:47:44.387Z,4.30
2018-05-01T17:50:19.019Z,6.23
2018-05-01T17:52:53.650Z,3.77
2018-05-01T17:55:27.293Z,3.33
2018-05-01T17:58:01.714Z,4.63
2018-05-01T18:00:36.819Z,3.07
2018-05-01T18:03:10.477Z,5.53
2018-05-01T18:05:44.140Z,6.20
2018-05-01T18:08:17.797Z,6.77
2018-05-01T18:10:51.420Z,6.70
2018-05-01T18:13:25.076Z,5.17
2018-05-01T18:16:02.031Z,3.20
2018-05-01T18:18:36.682Z,4.07
2018-05-01T18:21:11.746Z,5.13
2018-05-01T18:23:45.403Z,6.47
2018-05-01T18:26:19.603Z,5.97
2018-05-01T18:28:55.045Z,6.67
2018-05-01T18:31:29.464Z,6.90
2018-05-01T18:34:06.194Z,6.30
2018-05-01T18:36:40.624Z,10.60
2018-05-01T18:39:15.246Z,6.23
2018-05-01T18:41:56.172Z,6.63
2018-05-01T18:44:29.833Z,6.03
2018-05-01T18:47:03.467Z,7.90
2018-05-01T18:49:38.165Z,4.50
2018-05-01T18:52:12.788Z,7.93
2018-05-01T18:54:46.460Z,10.17
2018-05-01T18:57:20.827Z,11.50
2018-05-01T18:59:56.440Z,10.27
2018-05-01T19:02:30.814Z,5.10
2018-05-01T19:05:04.471Z,7.63
2018-05-01T19:07:38.095Z,4.97
2018-05-01T19:10:11.765Z,8.33
2018-05-01T19:12:45.229Z,5.80
2018-05-01T19:15:19.843Z,6.57
2018-05-01T19:17:53.469Z,9.53
2018-05-01T19:20:26.909Z,10.50
2018-05-01T19:23:00.544Z,11.20
2018-05-01T19:25:34.287Z,10.97
2018-05-01T19:28:07.922Z,7.60
2018-05-01T19:30:41.621Z,8.90
2018-05-01T19:33:15.264Z,10.93
2018-05-01T19:35:48.932Z,10.90
2018-05-01T19:38:23.561Z,11.03
2018-05-01T19:40:57.234Z,8.97
2018-05-01T19:43:31.676Z,7.30
2018-05-01T19:46:05.335Z,9.33
2018-05-01T19:48:38.967Z,9.07
2018-05-01T19:51:12.728Z,8.40
2018-05-01T19:53:46.470Z,8.93
2018-05-01T19:56:21.121Z,6.93
2018-05-01T19:58:55.749Z,10.43
2018-05-01T20:01:29.420Z,12.87
2018-05-01T20:04:04.025Z,8.97
2018-05-01T20:06:38.458Z,8.23
2018-05-01T20:09:12.111Z,12.93
2018-05-01T20:11:45.788Z,9.60
2018-05-01T20:14:20.306Z,12.83
2018-05-01T20:16:59.471Z,12.33
2018-05-01T20:19:36.853Z,14.17
2018-05-01T20:22:14.046Z,9.77
2018-05-01T20:24:51.850Z,9.63
2018-05-01T20:27:29.904Z,11.40
2018-05-01T20:30:08.500Z,11.87
2018-05-01T20:35:34.769Z,8.90
2018-05-01T20:38:15.130Z,11.13
2018-05-01T20:40:49.308Z,11.27
2018-05-01T20:43:23.738Z,11.03
2018-05-01T20:45:59.723Z,22.30
2018-05-01T20:48:34.679Z,9.87
2018-05-01T20:51:15.076Z,9.27
2018-05-01T20:54:09.314Z,15.37
2018-05-01T20:56:46.847Z,11.90
2018-05-01T20:59:30.992Z,9.50
2018-05-01T21:02:09.870Z,12.60
2018-05-01T21:04:51.846Z,12.27
2018-05-01T21:07:32.024Z,8.23
2018-05-01T21:10:13.654Z,11.23
2018-05-01T21:18:36.563Z,7.13
2018-05-01T21:26:58.023Z,8.57
2018-05-01T21:29:38.398Z,7.03
2018-05-01T21:38:17.338Z,7.67
2018-05-01T21:41:09.052Z,7.73
2018-05-01T21:43:57.099Z,7.40
2018-05-01T21:46:38.230Z,7.03
2018-05-01T21:49:17.741Z,9.60
2018-05-01T21:57:40.939Z,12.33
2018-05-01T22:00:23.974Z,16.57
2018-05-01T22:02:59.448Z,9.10
2018-05-01T22:05:40.347Z,9.10
2018-05-01T22:11:00.301Z,9.03
2018-05-01T22:13:44.066Z,8.43
2018-05-01T22:19:31.966Z,11.90
2018-05-01T22:22:11.503Z,13.10
2018-05-01T22:24:52.972Z,9.03
2018-05-01T22:31:07.312Z,13.10
2018-05-01T22:33:47.208Z,9.27
2018-05-01T22:36:23.345Z,11.67
2018-05-01T22:38:57.163Z,10.33
2018-05-01T22:41:30.822Z,10.40
2018-05-01T22:44:04.464Z,8.70
2018-05-01T22:46:39.108Z,7.20
2018-05-01T22:49:12.753Z,8.87
2018-05-01T22:51:46.406Z,8.67
2018-05-01T22:54:21.081Z,5.70
2018-05-01T22:56:55.671Z,4.53
2018-05-01T22:59:29.343Z,9.50
2018-05-01T23:02:02.967Z,8.77
2018-05-01T23:04:42.644Z,7.13
2018-05-01T23:07:17.112Z,10.17
2018-05-01T23:09:50.781Z,7.27
2018-05-01T23:12:24.413Z,6.57
2018-05-01T23:14:58.093Z,7.50
2018-05-01T23:17:32.618Z,6.33
2018-05-01T23:20:06.537Z,7.13
2018-05-01T23:22:40.167Z,4.13
2018-05-01T23:25:14.594Z,8.93
2018-05-01T23:27:48.223Z,7.47
2018-05-01T23:30:21.892Z,5.30
2018-05-01T23:32:55.512Z,8.10
2018-05-01T23:35:29.168Z,7.93
2018-05-01T23:38:02.790Z,7.07
2018-05-01T23:40:37.301Z,8.73
2018-05-01T23:43:11.043Z,7.90
2018-05-01T23:45:44.702Z,7.17
2018-05-01T23:48:18.316Z,8.03
2018-05-01T23:50:53.736Z,8.27
2018-05-01T23:53:27.405Z,11.27
2018-05-01T23:56:01.065Z,9.83
2018-05-01T23:58:35.448Z,6.17
